sensor_id;sensor_type;location;lat;lon;timestamp;temperature;humidity
54202;DHT22;40108;53.152;5.844;2023-07-13T00:01:16;17.00;85.50
54202;DHT22;40108;53.152;5.844;2023-07-13T00:03:42;16.90;85.30
54202;DHT22;40108;53.152;5.844;2023-07-13T00:06:08;16.90;85.10
54202;DHT22;40108;53.152;5.844;2023-07-13T00:08:34;16.80;85.00
54202;DHT22;40108;53.152;5.844;2023-07-13T00:11:02;16.80;84.80
54202;DHT22;40108;53.152;5.844;2023-07-13T00:13:28;16.70;84.60
54202;DHT22;40108;53.152;5.844;2023-07-13T00:15:55;16.80;84.30
54202;DHT22;40108;53.152;5.844;2023-07-13T00:18:21;16.70;84.20
54202;DHT22;40108;53.152;5.844;2023-07-13T00:20:47;16.70;84.10
54202;DHT22;40108;53.152;5.844;2023-07-13T00:23:14;16.70;84.10
54202;DHT22;40108;53.152;5.844;2023-07-13T00:25:40;16.60;84.10
54202;DHT22;40108;53.152;5.844;2023-07-13T00:28:05;16.60;84.30
54202;DHT22;40108;53.152;5.844;2023-07-13T00:30:31;16.60;84.30
54202;DHT22;40108;53.152;5.844;2023-07-13T00:32:57;16.60;84.40
54202;DHT22;40108;53.152;5.844;2023-07-13T00:35:22;16.60;84.40
54202;DHT22;40108;53.152;5.844;2023-07-13T00:37:48;16.60;84.40
54202;DHT22;40108;53.152;5.844;2023-07-13T00:40:17;16.60;84.50
54202;DHT22;40108;53.152;5.844;2023-07-13T00:42:43;16.60;84.40
54202;DHT22;40108;53.152;5.844;2023-07-13T00:47:41;16.60;84.20
54202;DHT22;40108;53.152;5.844;2023-07-13T00:50:09;16.60;83.90
54202;DHT22;40108;53.152;5.844;2023-07-13T00:52:39;16.60;83.70
54202;DHT22;40108;53.152;5.844;2023-07-13T00:55:06;16.60;83.60
54202;DHT22;40108;53.152;5.844;2023-07-13T00:57:33;16.60;83.40
54202;DHT22;40108;53.152;5.844;2023-07-13T01:00:03;16.60;83.00
54202;DHT22;40108;53.152;5.844;2023-07-13T01:02:32;16.60;83.00
54202;DHT22;40108;53.152;5.844;2023-07-13T01:04:58;16.60;83.00
54202;DHT22;40108;53.152;5.844;2023-07-13T01:07:24;16.60;83.00
54202;DHT22;40108;53.152;5.844;2023-07-13T01:09:50;16.60;83.00
54202;DHT22;40108;53.152;5.844;2023-07-13T01:12:16;16.60;83.10
54202;DHT22;40108;53.152;5.844;2023-07-13T01:14:42;16.60;83.40
54202;DHT22;40108;53.152;5.844;2023-07-13T01:17:10;16.60;83.60
54202;DHT22;40108;53.152;5.844;2023-07-13T01:19:40;16.60;83.70
54202;DHT22;40108;53.152;5.844;2023-07-13T01:22:15;16.60;84.10
54202;DHT22;40108;53.152;5.844;2023-07-13T01:24:43;16.50;84.40
54202;DHT22;40108;53.152;5.844;2023-07-13T01:27:11;16.40;84.70
54202;DHT22;40108;53.152;5.844;2023-07-13T01:29:40;16.40;85.00
54202;DHT22;40108;53.152;5.844;2023-07-13T01:32:14;16.40;85.30
54202;DHT22;40108;53.152;5.844;2023-07-13T01:34:40;16.30;85.50
54202;DHT22;40108;53.152;5.844;2023-07-13T01:37:10;16.30;85.70
54202;DHT22;40108;53.152;5.844;2023-07-13T01:39:37;16.20;85.70
54202;DHT22;40108;53.152;5.844;2023-07-13T01:42:03;16.10;86.10
54202;DHT22;40108;53.152;5.844;2023-07-13T01:44:29;16.10;86.30
54202;DHT22;40108;53.152;5.844;2023-07-13T01:46:54;16.10;86.60
54202;DHT22;40108;53.152;5.844;2023-07-13T01:49:21;16.10;86.70
54202;DHT22;40108;53.152;5.844;2023-07-13T01:51:46;16.10;87.00
54202;DHT22;40108;53.152;5.844;2023-07-13T01:54:12;16.10;87.20
54202;DHT22;40108;53.152;5.844;2023-07-13T01:56:38;16.10;87.30
54202;DHT22;40108;53.152;5.844;2023-07-13T01:59:05;16.10;87.40
54202;DHT22;40108;53.152;5.844;2023-07-13T02:01:30;16.10;87.50
54202;DHT22;40108;53.152;5.844;2023-07-13T02:03:56;16.10;87.70
54202;DHT22;40108;53.152;5.844;2023-07-13T02:06:22;16.10;87.80
54202;DHT22;40108;53.152;5.844;2023-07-13T02:08:47;16.10;87.80
54202;DHT22;40108;53.152;5.844;2023-07-13T02:11:13;16.10;88.00
54202;DHT22;40108;53.152;5.844;2023-07-13T02:13:39;16.10;88.20
54202;DHT22;40108;53.152;5.844;2023-07-13T02:16:05;16.00;88.40
54202;DHT22;40108;53.152;5.844;2023-07-13T02:18:32;15.90;88.50
54202;DHT22;40108;53.152;5.844;2023-07-13T02:20:58;15.90;88.60
54202;DHT22;40108;53.152;5.844;2023-07-13T02:23:24;15.90;88.70
54202;DHT22;40108;53.152;5.844;2023-07-13T02:25:57;15.80;88.80
54202;DHT22;40108;53.152;5.844;2023-07-13T02:28:23;15.80;89.10
54202;DHT22;40108;53.152;5.844;2023-07-13T02:30:49;15.80;89.30
54202;DHT22;40108;53.152;5.844;2023-07-13T02:33:14;15.80;89.50
54202;DHT22;40108;53.152;5.844;2023-07-13T02:35:40;15.70;89.60
54202;DHT22;40108;53.152;5.844;2023-07-13T02:38:06;15.70;89.70
54202;DHT22;40108;53.152;5.844;2023-07-13T02:40:32;15.80;89.80
54202;DHT22;40108;53.152;5.844;2023-07-13T02:43:02;15.70;89.80
54202;DHT22;40108;53.152;5.844;2023-07-13T02:45:28;15.80;89.70
54202;DHT22;40108;53.152;5.844;2023-07-13T02:47:53;15.80;90.20
54202;DHT22;40108;53.152;5.844;2023-07-13T02:50:19;15.80;90.20
54202;DHT22;40108;53.152;5.844;2023-07-13T02:52:45;15.80;90.60
54202;DHT22;40108;53.152;5.844;2023-07-13T02:55:11;15.80;91.20
54202;DHT22;40108;53.152;5.844;2023-07-13T02:57:37;15.80;91.30
54202;DHT22;40108;53.152;5.844;2023-07-13T03:00:03;15.80;91.50
54202;DHT22;40108;53.152;5.844;2023-07-13T03:02:33;15.90;91.80
54202;DHT22;40108;53.152;5.844;2023-07-13T03:04:59;15.90;91.80
54202;DHT22;40108;53.152;5.844;2023-07-13T03:07:25;15.90;92.00
54202;DHT22;40108;53.152;5.844;2023-07-13T03:09:55;16.00;92.10
54202;DHT22;40108;53.152;5.844;2023-07-13T03:12:21;16.00;92.10
54202;DHT22;40108;53.152;5.844;2023-07-13T03:14:47;16.00;91.90
54202;DHT22;40108;53.152;5.844;2023-07-13T03:17:13;16.00;92.00
54202;DHT22;40108;53.152;5.844;2023-07-13T03:19:38;15.90;92.00
54202;DHT22;40108;53.152;5.844;2023-07-13T03:22:04;16.00;92.10
54202;DHT22;40108;53.152;5.844;2023-07-13T03:24:33;15.90;92.10
54202;DHT22;40108;53.152;5.844;2023-07-13T03:27:00;16.00;92.10
54202;DHT22;40108;53.152;5.844;2023-07-13T03:29:26;15.90;92.10
54202;DHT22;40108;53.152;5.844;2023-07-13T03:31:52;15.90;92.10
54202;DHT22;40108;53.152;5.844;2023-07-13T03:34:18;15.80;92.20
54202;DHT22;40108;53.152;5.844;2023-07-13T03:36:43;15.80;92.10
54202;DHT22;40108;53.152;5.844;2023-07-13T03:39:09;15.80;92.10
54202;DHT22;40108;53.152;5.844;2023-07-13T03:41:35;15.70;92.10
54202;DHT22;40108;53.152;5.844;2023-07-13T03:44:01;15.70;92.30
54202;DHT22;40108;53.152;5.844;2023-07-13T03:46:27;15.60;92.30
54202;DHT22;40108;53.152;5.844;2023-07-13T03:48:52;15.60;92.40
54202;DHT22;40108;53.152;5.844;2023-07-13T03:51:19;15.60;92.40
54202;DHT22;40108;53.152;5.844;2023-07-13T03:53:46;15.60;92.40
54202;DHT22;40108;53.152;5.844;2023-07-13T03:56:13;15.60;92.40
54202;DHT22;40108;53.152;5.844;2023-07-13T03:58:45;15.60;92.30
54202;DHT22;40108;53.152;5.844;2023-07-13T04:01:12;15.60;92.40
54202;DHT22;40108;53.152;5.844;2023-07-13T04:03:38;15.60;92.50
54202;DHT22;40108;53.152;5.844;2023-07-13T04:06:06;15.60;92.40
54202;DHT22;40108;53.152;5.844;2023-07-13T04:08:34;15.60;92.40
54202;DHT22;40108;53.152;5.844;2023-07-13T04:11:02;15.60;92.60
54202;DHT22;40108;53.152;5.844;2023-07-13T04:13:28;15.50;92.60
54202;DHT22;40108;53.152;5.844;2023-07-13T04:15:53;15.50;92.60
54202;DHT22;40108;53.152;5.844;2023-07-13T04:18:19;15.50;92.60
54202;DHT22;40108;53.152;5.844;2023-07-13T04:20:46;15.40;92.80
54202;DHT22;40108;53.152;5.844;2023-07-13T04:23:16;15.50;92.90
54202;DHT22;40108;53.152;5.844;2023-07-13T04:25:46;15.40;93.00
54202;DHT22;40108;53.152;5.844;2023-07-13T04:28:15;15.40;93.00
54202;DHT22;40108;53.152;5.844;2023-07-13T04:30:41;15.40;93.10
54202;DHT22;40108;53.152;5.844;2023-07-13T04:33:07;15.40;93.10
54202;DHT22;40108;53.152;5.844;2023-07-13T04:35:34;15.50;93.20
54202;DHT22;40108;53.152;5.844;2023-07-13T04:38:00;15.50;93.10
54202;DHT22;40108;53.152;5.844;2023-07-13T04:40:27;15.50;93.20
54202;DHT22;40108;53.152;5.844;2023-07-13T04:42:53;15.50;93.10
54202;DHT22;40108;53.152;5.844;2023-07-13T04:45:19;15.60;93.10
54202;DHT22;40108;53.152;5.844;2023-07-13T04:47:45;15.60;93.10
54202;DHT22;40108;53.152;5.844;2023-07-13T04:50:13;15.70;93.00
54202;DHT22;40108;53.152;5.844;2023-07-13T04:52:44;15.70;93.00
54202;DHT22;40108;53.152;5.844;2023-07-13T04:55:13;15.80;93.00
54202;DHT22;40108;53.152;5.844;2023-07-13T04:57:39;15.80;92.90
54202;DHT22;40108;53.152;5.844;2023-07-13T05:00:06;15.90;92.80
54202;DHT22;40108;53.152;5.844;2023-07-13T05:02:33;16.00;92.80
54202;DHT22;40108;53.152;5.844;2023-07-13T05:04:59;16.10;92.60
54202;DHT22;40108;53.152;5.844;2023-07-13T05:07:25;16.10;92.50
54202;DHT22;40108;53.152;5.844;2023-07-13T05:09:51;16.30;92.30
54202;DHT22;40108;53.152;5.844;2023-07-13T05:12:17;16.30;92.10
54202;DHT22;40108;53.152;5.844;2023-07-13T05:14:43;16.40;91.90
54202;DHT22;40108;53.152;5.844;2023-07-13T05:17:09;16.50;91.70
54202;DHT22;40108;53.152;5.844;2023-07-13T05:19:35;16.60;91.50
54202;DHT22;40108;53.152;5.844;2023-07-13T05:22:01;16.70;91.20
54202;DHT22;40108;53.152;5.844;2023-07-13T05:24:28;16.80;90.80
54202;DHT22;40108;53.152;5.844;2023-07-13T05:26:53;16.90;90.50
54202;DHT22;40108;53.152;5.844;2023-07-13T05:29:20;17.00;90.20
54202;DHT22;40108;53.152;5.844;2023-07-13T05:31:46;17.10;89.90
54202;DHT22;40108;53.152;5.844;2023-07-13T05:34:12;17.10;89.50
54202;DHT22;40108;53.152;5.844;2023-07-13T05:36:38;17.20;89.20
54202;DHT22;40108;53.152;5.844;2023-07-13T05:39:04;17.40;89.20
54202;DHT22;40108;53.152;5.844;2023-07-13T05:41:30;17.40;88.50
54202;DHT22;40108;53.152;5.844;2023-07-13T05:43:55;17.50;88.20
54202;DHT22;40108;53.152;5.844;2023-07-13T05:46:21;17.60;87.80
54202;DHT22;40108;53.152;5.844;2023-07-13T05:48:47;17.60;87.50
54202;DHT22;40108;53.152;5.844;2023-07-13T05:51:13;17.60;86.90
54202;DHT22;40108;53.152;5.844;2023-07-13T05:53:39;17.70;86.80
54202;DHT22;40108;53.152;5.844;2023-07-13T05:56:05;17.80;86.50
54202;DHT22;40108;53.152;5.844;2023-07-13T05:58:30;17.90;86.20
54202;DHT22;40108;53.152;5.844;2023-07-13T06:01:02;18.00;86.10
54202;DHT22;40108;53.152;5.844;2023-07-13T06:03:29;18.10;85.50
54202;DHT22;40108;53.152;5.844;2023-07-13T06:05:54;18.10;85.30
54202;DHT22;40108;53.152;5.844;2023-07-13T06:08:20;18.10;83.60
54202;DHT22;40108;53.152;5.844;2023-07-13T06:10:46;18.20;83.60
54202;DHT22;40108;53.152;5.844;2023-07-13T06:13:12;18.40;83.70
54202;DHT22;40108;53.152;5.844;2023-07-13T06:15:37;18.50;83.40
54202;DHT22;40108;53.152;5.844;2023-07-13T06:18:03;18.60;83.50
54202;DHT22;40108;53.152;5.844;2023-07-13T06:20:29;18.60;83.30
54202;DHT22;40108;53.152;5.844;2023-07-13T06:22:55;18.70;82.50
54202;DHT22;40108;53.152;5.844;2023-07-13T06:25:20;18.90;82.30
54202;DHT22;40108;53.152;5.844;2023-07-13T06:27:46;19.00;81.90
54202;DHT22;40108;53.152;5.844;2023-07-13T06:30:12;19.00;81.30
54202;DHT22;40108;53.152;5.844;2023-07-13T06:32:38;19.10;79.60
54202;DHT22;40108;53.152;5.844;2023-07-13T06:35:04;19.10;79.50
54202;DHT22;40108;53.152;5.844;2023-07-13T06:37:30;19.10;80.00
54202;DHT22;40108;53.152;5.844;2023-07-13T06:39:55;19.10;78.30
54202;DHT22;40108;53.152;5.844;2023-07-13T06:42:21;19.20;78.60
54202;DHT22;40108;53.152;5.844;2023-07-13T06:44:47;19.30;77.80
54202;DHT22;40108;53.152;5.844;2023-07-13T06:47:12;19.60;77.20
54202;DHT22;40108;53.152;5.844;2023-07-13T06:49:38;19.80;75.30
54202;DHT22;40108;53.152;5.844;2023-07-13T06:52:04;20.00;74.80
54202;DHT22;40108;53.152;5.844;2023-07-13T06:54:30;19.80;73.80
54202;DHT22;40108;53.152;5.844;2023-07-13T06:56:56;19.70;74.30
54202;DHT22;40108;53.152;5.844;2023-07-13T06:59:22;19.60;74.20
54202;DHT22;40108;53.152;5.844;2023-07-13T07:01:47;19.60;74.90
54202;DHT22;40108;53.152;5.844;2023-07-13T07:04:13;19.60;73.90
54202;DHT22;40108;53.152;5.844;2023-07-13T07:06:39;19.70;73.20
54202;DHT22;40108;53.152;5.844;2023-07-13T07:09:04;19.70;73.40
54202;DHT22;40108;53.152;5.844;2023-07-13T07:11:30;19.70;73.30
54202;DHT22;40108;53.152;5.844;2023-07-13T07:13:56;19.90;72.60
54202;DHT22;40108;53.152;5.844;2023-07-13T07:16:24;20.00;71.20
54202;DHT22;40108;53.152;5.844;2023-07-13T07:18:50;19.90;71.60
54202;DHT22;40108;53.152;5.844;2023-07-13T07:21:15;19.70;72.60
54202;DHT22;40108;53.152;5.844;2023-07-13T07:23:42;19.60;73.10
54202;DHT22;40108;53.152;5.844;2023-07-13T07:26:08;19.60;73.10
54202;DHT22;40108;53.152;5.844;2023-07-13T07:28:35;19.40;73.80
54202;DHT22;40108;53.152;5.844;2023-07-13T07:31:01;19.30;74.50
54202;DHT22;40108;53.152;5.844;2023-07-13T07:33:27;19.20;75.20
54202;DHT22;40108;53.152;5.844;2023-07-13T07:35:53;19.10;76.00
54202;DHT22;40108;53.152;5.844;2023-07-13T07:38:19;19.10;76.50
54202;DHT22;40108;53.152;5.844;2023-07-13T07:40:44;19.10;77.50
54202;DHT22;40108;53.152;5.844;2023-07-13T07:43:11;19.50;78.10
54202;DHT22;40108;53.152;5.844;2023-07-13T07:45:38;19.70;77.80
54202;DHT22;40108;53.152;5.844;2023-07-13T07:48:05;19.70;77.40
54202;DHT22;40108;53.152;5.844;2023-07-13T07:50:32;19.70;76.60
54202;DHT22;40108;53.152;5.844;2023-07-13T07:52:57;20.00;76.40
54202;DHT22;40108;53.152;5.844;2023-07-13T07:55:24;20.20;74.40
54202;DHT22;40108;53.152;5.844;2023-07-13T07:57:52;20.60;75.00
54202;DHT22;40108;53.152;5.844;2023-07-13T08:00:18;21.10;74.00
54202;DHT22;40108;53.152;5.844;2023-07-13T08:02:44;21.60;71.90
54202;DHT22;40108;53.152;5.844;2023-07-13T08:05:10;21.80;70.80
54202;DHT22;40108;53.152;5.844;2023-07-13T08:07:39;22.00;68.80
54202;DHT22;40108;53.152;5.844;2023-07-13T08:10:06;22.00;68.20
54202;DHT22;40108;53.152;5.844;2023-07-13T08:12:36;22.00;66.50
54202;DHT22;40108;53.152;5.844;2023-07-13T08:15:02;22.10;65.80
54202;DHT22;40108;53.152;5.844;2023-07-13T08:17:28;22.30;65.00
54202;DHT22;40108;53.152;5.844;2023-07-13T08:19:54;22.60;64.60
54202;DHT22;40108;53.152;5.844;2023-07-13T08:22:20;22.80;64.30
54202;DHT22;40108;53.152;5.844;2023-07-13T08:24:45;22.70;62.90
54202;DHT22;40108;53.152;5.844;2023-07-13T08:27:12;22.60;63.70
54202;DHT22;40108;53.152;5.844;2023-07-13T08:29:39;22.80;63.10
54202;DHT22;40108;53.152;5.844;2023-07-13T08:32:06;22.70;61.90
54202;DHT22;40108;53.152;5.844;2023-07-13T08:34:35;22.50;61.70
54202;DHT22;40108;53.152;5.844;2023-07-13T08:37:01;22.20;62.50
54202;DHT22;40108;53.152;5.844;2023-07-13T08:39:29;22.40;63.30
54202;DHT22;40108;53.152;5.844;2023-07-13T08:42:00;22.60;62.10
54202;DHT22;40108;53.152;5.844;2023-07-13T08:44:54;22.80;61.30
54202;DHT22;40108;53.152;5.844;2023-07-13T08:47:23;23.10;60.60
54202;DHT22;40108;53.152;5.844;2023-07-13T08:49:50;23.30;60.10
54202;DHT22;40108;53.152;5.844;2023-07-13T08:54:49;23.50;57.20
54202;DHT22;40108;53.152;5.844;2023-07-13T08:57:22;23.50;56.70
54202;DHT22;40108;53.152;5.844;2023-07-13T08:59:50;23.50;56.80
54202;DHT22;40108;53.152;5.844;2023-07-13T09:02:39;23.50;57.20
54202;DHT22;40108;53.152;5.844;2023-07-13T09:05:10;23.50;57.50
54202;DHT22;40108;53.152;5.844;2023-07-13T09:10:20;23.70;57.60
54202;DHT22;40108;53.152;5.844;2023-07-13T09:15:26;23.60;56.80
54202;DHT22;40108;53.152;5.844;2023-07-13T09:17:55;23.50;58.20
54202;DHT22;40108;53.152;5.844;2023-07-13T09:20:31;23.10;58.20
54202;DHT22;40108;53.152;5.844;2023-07-13T09:23:03;23.00;59.20
54202;DHT22;40108;53.152;5.844;2023-07-13T09:25:32;23.00;59.90
54202;DHT22;40108;53.152;5.844;2023-07-13T09:31:02;23.40;61.20
54202;DHT22;40108;53.152;5.844;2023-07-13T09:33:29;23.50;61.10
54202;DHT22;40108;53.152;5.844;2023-07-13T09:35:59;23.50;58.70
54202;DHT22;40108;53.152;5.844;2023-07-13T09:38:28;23.40;59.10
54202;DHT22;40108;53.152;5.844;2023-07-13T09:43:27;23.40;58.40
54202;DHT22;40108;53.152;5.844;2023-07-13T09:45:56;23.50;57.00
54202;DHT22;40108;53.152;5.844;2023-07-13T09:48:22;23.50;56.20
54202;DHT22;40108;53.152;5.844;2023-07-13T09:50:54;23.50;56.40
54202;DHT22;40108;53.152;5.844;2023-07-13T09:53:21;23.60;57.80
54202;DHT22;40108;53.152;5.844;2023-07-13T09:55:49;23.50;56.70
54202;DHT22;40108;53.152;5.844;2023-07-13T09:58:16;23.50;56.50
54202;DHT22;40108;53.152;5.844;2023-07-13T10:00:53;23.40;56.30
54202;DHT22;40108;53.152;5.844;2023-07-13T10:03:26;23.30;56.20
54202;DHT22;40108;53.152;5.844;2023-07-13T10:05:53;23.30;57.20
54202;DHT22;40108;53.152;5.844;2023-07-13T10:08:25;23.30;57.40
54202;DHT22;40108;53.152;5.844;2023-07-13T10:13:45;23.20;58.30
54202;DHT22;40108;53.152;5.844;2023-07-13T10:16:11;23.30;57.80
54202;DHT22;40108;53.152;5.844;2023-07-13T10:18:48;23.20;59.20
54202;DHT22;40108;53.152;5.844;2023-07-13T10:21:17;23.10;59.20
54202;DHT22;40108;53.152;5.844;2023-07-13T10:23:47;23.10;60.50
54202;DHT22;40108;53.152;5.844;2023-07-13T10:26:18;23.50;61.10
54202;DHT22;40108;53.152;5.844;2023-07-13T10:28:47;23.70;59.10
54202;DHT22;40108;53.152;5.844;2023-07-13T10:31:16;23.80;58.50
54202;DHT22;40108;53.152;5.844;2023-07-13T10:33:42;24.00;59.40
54202;DHT22;40108;53.152;5.844;2023-07-13T10:38:39;24.20;59.90
54202;DHT22;40108;53.152;5.844;2023-07-13T10:41:12;24.40;57.50
54202;DHT22;40108;53.152;5.844;2023-07-13T10:43:44;24.30;56.60
54202;DHT22;40108;53.152;5.844;2023-07-13T10:46:13;24.00;55.10
54202;DHT22;40108;53.152;5.844;2023-07-13T10:48:41;23.80;55.50
54202;DHT22;40108;53.152;5.844;2023-07-13T10:51:09;24.00;56.00
54202;DHT22;40108;53.152;5.844;2023-07-13T10:53:37;24.30;54.90
54202;DHT22;40108;53.152;5.844;2023-07-13T10:56:24;24.60;52.30
54202;DHT22;40108;53.152;5.844;2023-07-13T10:59:10;24.90;54.50
54202;DHT22;40108;53.152;5.844;2023-07-13T11:01:52;24.60;53.20
54202;DHT22;40108;53.152;5.844;2023-07-13T11:04:44;24.60;55.00
54202;DHT22;40108;53.152;5.844;2023-07-13T11:07:25;24.70;53.30
54202;DHT22;40108;53.152;5.844;2023-07-13T11:10:00;24.80;54.70
54202;DHT22;40108;53.152;5.844;2023-07-13T11:15:32;24.50;53.70
54202;DHT22;40108;53.152;5.844;2023-07-13T11:18:03;24.50;54.00
54202;DHT22;40108;53.152;5.844;2023-07-13T11:20:33;24.60;54.20
54202;DHT22;40108;53.152;5.844;2023-07-13T11:25:37;24.60;52.60
54202;DHT22;40108;53.152;5.844;2023-07-13T11:33:20;25.00;53.80
54202;DHT22;40108;53.152;5.844;2023-07-13T11:35:58;25.00;52.00
54202;DHT22;40108;53.152;5.844;2023-07-13T11:38:31;24.70;52.90
54202;DHT22;40108;53.152;5.844;2023-07-13T11:41:00;24.60;55.10
54202;DHT22;40108;53.152;5.844;2023-07-13T11:43:29;24.60;54.10
54202;DHT22;40108;53.152;5.844;2023-07-13T11:45:55;24.60;54.40
54202;DHT22;40108;53.152;5.844;2023-07-13T11:48:27;24.80;54.90
54202;DHT22;40108;53.152;5.844;2023-07-13T11:51:04;24.70;54.10
54202;DHT22;40108;53.152;5.844;2023-07-13T11:53:46;24.60;53.20
54202;DHT22;40108;53.152;5.844;2023-07-13T11:56:13;24.50;54.70
54202;DHT22;40108;53.152;5.844;2023-07-13T11:58:39;24.30;54.60
54202;DHT22;40108;53.152;5.844;2023-07-13T12:01:05;24.30;55.30
54202;DHT22;40108;53.152;5.844;2023-07-13T12:03:33;24.40;56.80
54202;DHT22;40108;53.152;5.844;2023-07-13T12:06:05;24.50;54.90
54202;DHT22;40108;53.152;5.844;2023-07-13T12:08:40;24.50;54.20
54202;DHT22;40108;53.152;5.844;2023-07-13T12:11:15;24.50;53.30
54202;DHT22;40108;53.152;5.844;2023-07-13T12:13:41;24.60;54.20
54202;DHT22;40108;53.152;5.844;2023-07-13T12:16:15;24.60;54.20
54202;DHT22;40108;53.152;5.844;2023-07-13T12:18:43;24.60;52.10
54202;DHT22;40108;53.152;5.844;2023-07-13T12:21:14;24.10;54.20
54202;DHT22;40108;53.152;5.844;2023-07-13T12:23:45;24.10;55.40
54202;DHT22;40108;53.152;5.844;2023-07-13T12:26:12;24.10;55.70
54202;DHT22;40108;53.152;5.844;2023-07-13T12:28:51;24.00;55.40
54202;DHT22;40108;53.152;5.844;2023-07-13T12:31:37;24.00;55.90
54202;DHT22;40108;53.152;5.844;2023-07-13T12:36:52;24.10;56.50
54202;DHT22;40108;53.152;5.844;2023-07-13T12:39:45;24.30;56.70
54202;DHT22;40108;53.152;5.844;2023-07-13T12:42:20;24.40;57.90
54202;DHT22;40108;53.152;5.844;2023-07-13T12:44:49;24.30;56.10
54202;DHT22;40108;53.152;5.844;2023-07-13T12:47:16;24.20;55.50
54202;DHT22;40108;53.152;5.844;2023-07-13T12:49:47;24.10;56.90
54202;DHT22;40108;53.152;5.844;2023-07-13T12:52:17;24.10;58.30
54202;DHT22;40108;53.152;5.844;2023-07-13T12:54:54;24.10;57.70
54202;DHT22;40108;53.152;5.844;2023-07-13T12:57:22;24.00;56.70
54202;DHT22;40108;53.152;5.844;2023-07-13T12:59:55;23.80;57.10
54202;DHT22;40108;53.152;5.844;2023-07-13T13:02:32;23.70;58.90
54202;DHT22;40108;53.152;5.844;2023-07-13T13:05:01;23.60;57.00
54202;DHT22;40108;53.152;5.844;2023-07-13T13:07:29;23.40;58.30
54202;DHT22;40108;53.152;5.844;2023-07-13T13:09:55;23.40;59.20
54202;DHT22;40108;53.152;5.844;2023-07-13T13:12:22;23.40;59.50
54202;DHT22;40108;53.152;5.844;2023-07-13T13:14:51;23.50;58.90
54202;DHT22;40108;53.152;5.844;2023-07-13T13:17:24;23.60;60.40
54202;DHT22;40108;53.152;5.844;2023-07-13T13:19:52;23.70;60.70
54202;DHT22;40108;53.152;5.844;2023-07-13T13:22:20;23.70;57.50
54202;DHT22;40108;53.152;5.844;2023-07-13T13:24:46;23.70;57.90
54202;DHT22;40108;53.152;5.844;2023-07-13T13:27:22;23.50;56.10
54202;DHT22;40108;53.152;5.844;2023-07-13T13:29:50;23.40;58.10
54202;DHT22;40108;53.152;5.844;2023-07-13T13:32:17;23.40;59.70
54202;DHT22;40108;53.152;5.844;2023-07-13T13:34:44;23.40;59.20
54202;DHT22;40108;53.152;5.844;2023-07-13T13:37:19;23.40;57.70
54202;DHT22;40108;53.152;5.844;2023-07-13T13:39:46;23.40;59.70
54202;DHT22;40108;53.152;5.844;2023-07-13T13:42:12;23.30;57.60
54202;DHT22;40108;53.152;5.844;2023-07-13T13:44:41;23.10;58.30
54202;DHT22;40108;53.152;5.844;2023-07-13T13:47:23;23.10;58.50
54202;DHT22;40108;53.152;5.844;2023-07-13T13:49:49;23.10;58.20
54202;DHT22;40108;53.152;5.844;2023-07-13T13:52:15;23.10;60.10
54202;DHT22;40108;53.152;5.844;2023-07-13T13:54:41;23.00;59.70
54202;DHT22;40108;53.152;5.844;2023-07-13T13:57:08;22.80;60.80
54202;DHT22;40108;53.152;5.844;2023-07-13T13:59:33;22.90;60.90
54202;DHT22;40108;53.152;5.844;2023-07-13T14:02:28;22.70;60.10
54202;DHT22;40108;53.152;5.844;2023-07-13T14:05:05;22.60;61.50
54202;DHT22;40108;53.152;5.844;2023-07-13T14:07:33;22.40;61.80
54202;DHT22;40108;53.152;5.844;2023-07-13T14:09:59;22.30;61.80
54202;DHT22;40108;53.152;5.844;2023-07-13T14:12:27;22.10;62.50
54202;DHT22;40108;53.152;5.844;2023-07-13T14:14:55;22.20;64.30
54202;DHT22;40108;53.152;5.844;2023-07-13T14:17:23;22.30;63.60
54202;DHT22;40108;53.152;5.844;2023-07-13T14:19:50;22.40;63.50
54202;DHT22;40108;53.152;5.844;2023-07-13T14:22:20;22.50;64.40
54202;DHT22;40108;53.152;5.844;2023-07-13T14:24:46;22.60;63.60
54202;DHT22;40108;53.152;5.844;2023-07-13T14:27:12;22.40;61.60
54202;DHT22;40108;53.152;5.844;2023-07-13T14:29:38;22.10;62.10
54202;DHT22;40108;53.152;5.844;2023-07-13T14:32:08;21.90;62.70
54202;DHT22;40108;53.152;5.844;2023-07-13T14:34:35;21.70;62.80
54202;DHT22;40108;53.152;5.844;2023-07-13T14:37:00;21.60;61.80
54202;DHT22;40108;53.152;5.844;2023-07-13T14:39:26;21.60;63.90
54202;DHT22;40108;53.152;5.844;2023-07-13T14:41:54;21.60;63.20
54202;DHT22;40108;53.152;5.844;2023-07-13T14:44:24;21.60;64.00
54202;DHT22;40108;53.152;5.844;2023-07-13T14:46:50;21.70;64.00
54202;DHT22;40108;53.152;5.844;2023-07-13T14:49:34;21.60;63.90
54202;DHT22;40108;53.152;5.844;2023-07-13T14:52:10;21.60;64.70
54202;DHT22;40108;53.152;5.844;2023-07-13T14:54:37;21.60;64.60
54202;DHT22;40108;53.152;5.844;2023-07-13T14:57:13;21.50;65.00
54202;DHT22;40108;53.152;5.844;2023-07-13T14:59:39;21.60;66.10
54202;DHT22;40108;53.152;5.844;2023-07-13T15:02:14;21.60;65.50
54202;DHT22;40108;53.152;5.844;2023-07-13T15:04:41;21.60;65.80
54202;DHT22;40108;53.152;5.844;2023-07-13T15:07:10;21.70;66.00
54202;DHT22;40108;53.152;5.844;2023-07-13T15:09:35;21.70;65.20
54202;DHT22;40108;53.152;5.844;2023-07-13T15:12:01;21.80;65.50
54202;DHT22;40108;53.152;5.844;2023-07-13T15:14:30;21.90;65.80
54202;DHT22;40108;53.152;5.844;2023-07-13T15:16:56;21.90;66.10
54202;DHT22;40108;53.152;5.844;2023-07-13T15:19:23;21.90;65.50
54202;DHT22;40108;53.152;5.844;2023-07-13T15:21:49;21.80;65.60
54202;DHT22;40108;53.152;5.844;2023-07-13T15:24:15;21.70;66.00
54202;DHT22;40108;53.152;5.844;2023-07-13T15:26:44;21.70;66.00
54202;DHT22;40108;53.152;5.844;2023-07-13T15:29:12;21.60;64.30
54202;DHT22;40108;53.152;5.844;2023-07-13T15:31:38;21.60;64.70
54202;DHT22;40108;53.152;5.844;2023-07-13T15:34:11;21.40;65.50
54202;DHT22;40108;53.152;5.844;2023-07-13T15:36:41;21.30;65.30
54202;DHT22;40108;53.152;5.844;2023-07-13T15:39:14;21.20;66.00
54202;DHT22;40108;53.152;5.844;2023-07-13T15:41:44;21.10;66.10
54202;DHT22;40108;53.152;5.844;2023-07-13T15:44:25;21.10;66.40
54202;DHT22;40108;53.152;5.844;2023-07-13T15:46:52;21.10;67.00
54202;DHT22;40108;53.152;5.844;2023-07-13T15:49:17;21.10;67.20
54202;DHT22;40108;53.152;5.844;2023-07-13T15:51:43;21.20;67.50
54202;DHT22;40108;53.152;5.844;2023-07-13T15:54:13;21.20;66.40
54202;DHT22;40108;53.152;5.844;2023-07-13T15:56:40;21.20;67.40
54202;DHT22;40108;53.152;5.844;2023-07-13T15:59:09;21.20;68.20
54202;DHT22;40108;53.152;5.844;2023-07-13T16:01:38;21.20;68.00
54202;DHT22;40108;53.152;5.844;2023-07-13T16:04:04;21.30;66.80
54202;DHT22;40108;53.152;5.844;2023-07-13T16:06:36;21.30;67.00
54202;DHT22;40108;53.152;5.844;2023-07-13T16:09:05;21.20;65.90
54202;DHT22;40108;53.152;5.844;2023-07-13T16:11:36;21.00;67.00